sensor_id;sensor_type;location;lat;lon;timestamp;temperature;humidity
61004;DHT22;46889;37.310;13.582;2023-05-14T00:00:21;19.20;99.90
61004;DHT22;46889;37.310;13.582;2023-05-14T00:02:47;19.20;99.90
61004;DHT22;46889;37.310;13.582;2023-05-14T00:05:14;19.20;99.90
61004;DHT22;46889;37.310;13.582;2023-05-14T00:07:40;19.20;99.90
61004;DHT22;46889;37.310;13.582;2023-05-14T00:10:07;19.10;99.90
61004;DHT22;46889;37.310;13.582;2023-05-14T00:12:33;19.20;99.90
61004;DHT22;46889;37.310;13.582;2023-05-14T00:14:59;19.00;99.90
61004;DHT22;46889;37.310;13.582;2023-05-14T00:17:26;19.00;99.90
61004;DHT22;46889;37.310;13.582;2023-05-14T00:19:52;19.00;99.90
61004;DHT22;46889;37.310;13.582;2023-05-14T00:22:18;19.00;99.90
61004;DHT22;46889;37.310;13.582;2023-05-14T00:24:44;19.00;99.90
61004;DHT22;46889;37.310;13.582;2023-05-14T00:27:10;19.00;99.90
61004;DHT22;46889;37.310;13.582;2023-05-14T00:29:36;18.90;99.90
61004;DHT22;46889;37.310;13.582;2023-05-14T00:32:02;19.00;99.90
61004;DHT22;46889;37.310;13.582;2023-05-14T00:34:29;18.90;99.90
61004;DHT22;46889;37.310;13.582;2023-05-14T00:36:55;18.90;99.90
61004;DHT22;46889;37.310;13.582;2023-05-14T00:39:21;18.90;99.90
61004;DHT22;46889;37.310;13.582;2023-05-14T00:41:47;19.00;99.90
61004;DHT22;46889;37.310;13.582;2023-05-14T00:44:13;18.90;99.90
61004;DHT22;46889;37.310;13.582;2023-05-14T00:46:39;19.00;99.90
61004;DHT22;46889;37.310;13.582;2023-05-14T00:49:06;18.90;99.90
61004;DHT22;46889;37.310;13.582;2023-05-14T00:51:32;18.90;99.90
61004;DHT22;46889;37.310;13.582;2023-05-14T00:53:58;18.80;99.90
61004;DHT22;46889;37.310;13.582;2023-05-14T00:56:25;18.70;99.90
61004;DHT22;46889;37.310;13.582;2023-05-14T00:58:52;18.80;99.90
61004;DHT22;46889;37.310;13.582;2023-05-14T01:01:18;18.80;99.90
61004;DHT22;46889;37.310;13.582;2023-05-14T01:03:44;18.90;99.90
61004;DHT22;46889;37.310;13.582;2023-05-14T01:16:42;18.90;99.90
61004;DHT22;46889;37.310;13.582;2023-05-14T01:22:07;18.90;99.90
61004;DHT22;46889;37.310;13.582;2023-05-14T01:24:33;18.90;99.90
61004;DHT22;46889;37.310;13.582;2023-05-14T01:32:56;18.90;99.90
61004;DHT22;46889;37.310;13.582;2023-05-14T01:35:26;18.90;99.90
61004;DHT22;46889;37.310;13.582;2023-05-14T01:38:00;18.90;99.90
61004;DHT22;46889;37.310;13.582;2023-05-14T01:40:26;18.90;99.90
61004;DHT22;46889;37.310;13.582;2023-05-14T01:42:53;18.90;99.90
61004;DHT22;46889;37.310;13.582;2023-05-14T01:45:20;18.90;99.90
61004;DHT22;46889;37.310;13.582;2023-05-14T01:47:46;18.90;99.90
61004;DHT22;46889;37.310;13.582;2023-05-14T01:50:12;18.80;99.90
61004;DHT22;46889;37.310;13.582;2023-05-14T01:52:38;18.80;99.90
61004;DHT22;46889;37.310;13.582;2023-05-14T01:55:05;18.70;99.90
61004;DHT22;46889;37.310;13.582;2023-05-14T01:57:31;18.60;99.90
61004;DHT22;46889;37.310;13.582;2023-05-14T01:59:57;18.70;99.90
61004;DHT22;46889;37.310;13.582;2023-05-14T02:02:23;18.70;99.90
61004;DHT22;46889;37.310;13.582;2023-05-14T02:04:51;18.70;99.90
61004;DHT22;46889;37.310;13.582;2023-05-14T02:07:17;18.70;99.90
61004;DHT22;46889;37.310;13.582;2023-05-14T02:09:43;18.70;99.90
61004;DHT22;46889;37.310;13.582;2023-05-14T02:12:09;18.70;99.90
61004;DHT22;46889;37.310;13.582;2023-05-14T02:14:38;18.70;99.90
61004;DHT22;46889;37.310;13.582;2023-05-14T02:17:05;18.70;99.90
61004;DHT22;46889;37.310;13.582;2023-05-14T02:19:31;18.70;99.90
61004;DHT22;46889;37.310;13.582;2023-05-14T02:21:58;18.70;99.90
61004;DHT22;46889;37.310;13.582;2023-05-14T02:24:25;18.70;99.90
61004;DHT22;46889;37.310;13.582;2023-05-14T02:26:52;18.80;99.90
61004;DHT22;46889;37.310;13.582;2023-05-14T02:29:18;18.80;99.90
61004;DHT22;46889;37.310;13.582;2023-05-14T02:31:44;18.80;99.90
61004;DHT22;46889;37.310;13.582;2023-05-14T02:34:10;18.80;99.90
61004;DHT22;46889;37.310;13.582;2023-05-14T02:36:36;18.70;99.90
61004;DHT22;46889;37.310;13.582;2023-05-14T02:39:02;18.70;99.90
61004;DHT22;46889;37.310;13.582;2023-05-14T02:41:29;18.60;99.90
61004;DHT22;46889;37.310;13.582;2023-05-14T02:43:55;18.60;99.90
61004;DHT22;46889;37.310;13.582;2023-05-14T02:46:21;18.50;99.90
61004;DHT22;46889;37.310;13.582;2023-05-14T02:48:47;18.60;99.90
61004;DHT22;46889;37.310;13.582;2023-05-14T02:51:13;18.60;99.90
61004;DHT22;46889;37.310;13.582;2023-05-14T02:53:40;18.60;99.90
61004;DHT22;46889;37.310;13.582;2023-05-14T02:56:07;18.60;99.90
61004;DHT22;46889;37.310;13.582;2023-05-14T02:58:33;18.60;99.90
61004;DHT22;46889;37.310;13.582;2023-05-14T03:00:59;18.60;99.90
61004;DHT22;46889;37.310;13.582;2023-05-14T03:03:25;18.80;99.90
61004;DHT22;46889;37.310;13.582;2023-05-14T03:05:51;18.80;99.90
61004;DHT22;46889;37.310;13.582;2023-05-14T03:08:17;18.90;99.90
61004;DHT22;46889;37.310;13.582;2023-05-14T03:10:43;18.90;99.90
61004;DHT22;46889;37.310;13.582;2023-05-14T03:13:09;18.90;99.90
61004;DHT22;46889;37.310;13.582;2023-05-14T03:15:35;18.90;99.90
61004;DHT22;46889;37.310;13.582;2023-05-14T03:18:01;18.90;99.90
61004;DHT22;46889;37.310;13.582;2023-05-14T03:20:28;18.90;99.90
61004;DHT22;46889;37.310;13.582;2023-05-14T03:22:54;18.90;99.90
61004;DHT22;46889;37.310;13.582;2023-05-14T03:25:22;18.90;99.90
61004;DHT22;46889;37.310;13.582;2023-05-14T03:27:48;18.80;99.90
61004;DHT22;46889;37.310;13.582;2023-05-14T03:30:14;18.80;99.90
61004;DHT22;46889;37.310;13.582;2023-05-14T03:32:40;18.80;99.90
61004;DHT22;46889;37.310;13.582;2023-05-14T03:35:07;18.90;99.90
61004;DHT22;46889;37.310;13.582;2023-05-14T03:37:33;18.90;99.90
61004;DHT22;46889;37.310;13.582;2023-05-14T03:40:00;18.90;99.90
61004;DHT22;46889;37.310;13.582;2023-05-14T03:42:26;18.80;99.90
61004;DHT22;46889;37.310;13.582;2023-05-14T03:44:52;18.70;99.90
61004;DHT22;46889;37.310;13.582;2023-05-14T03:47:18;18.70;99.90
61004;DHT22;46889;37.310;13.582;2023-05-14T03:49:44;18.70;99.90
61004;DHT22;46889;37.310;13.582;2023-05-14T03:52:10;18.70;99.90
61004;DHT22;46889;37.310;13.582;2023-05-14T03:54:36;18.70;99.90
61004;DHT22;46889;37.310;13.582;2023-05-14T03:57:03;18.70;99.90
61004;DHT22;46889;37.310;13.582;2023-05-14T03:59:29;18.70;99.90
61004;DHT22;46889;37.310;13.582;2023-05-14T04:01:56;18.70;99.90
61004;DHT22;46889;37.310;13.582;2023-05-14T04:04:22;18.60;99.90
61004;DHT22;46889;37.310;13.582;2023-05-14T04:06:49;18.70;99.90
61004;DHT22;46889;37.310;13.582;2023-05-14T04:09:15;18.70;99.90
61004;DHT22;46889;37.310;13.582;2023-05-14T04:11:41;18.70;99.90
61004;DHT22;46889;37.310;13.582;2023-05-14T04:14:07;18.70;99.90
61004;DHT22;46889;37.310;13.582;2023-05-14T04:16:33;18.80;99.90
61004;DHT22;46889;37.310;13.582;2023-05-14T04:19:01;18.90;99.90
61004;DHT22;46889;37.310;13.582;2023-05-14T04:21:30;18.90;99.90
61004;DHT22;46889;37.310;13.582;2023-05-14T04:23:56;18.90;99.90
61004;DHT22;46889;37.310;13.582;2023-05-14T04:26:23;18.90;99.90
61004;DHT22;46889;37.310;13.582;2023-05-14T04:28:49;19.10;99.90
61004;DHT22;46889;37.310;13.582;2023-05-14T04:31:15;19.20;99.90
61004;DHT22;46889;37.310;13.582;2023-05-14T04:33:41;19.20;99.90
61004;DHT22;46889;37.310;13.582;2023-05-14T04:36:07;19.00;99.90
61004;DHT22;46889;37.310;13.582;2023-05-14T04:38:33;19.00;99.90
61004;DHT22;46889;37.310;13.582;2023-05-14T04:40:59;18.90;99.90
61004;DHT22;46889;37.310;13.582;2023-05-14T04:43:25;18.90;99.90
61004;DHT22;46889;37.310;13.582;2023-05-14T04:45:51;18.90;99.90
61004;DHT22;46889;37.310;13.582;2023-05-14T04:48:18;18.90;99.90
61004;DHT22;46889;37.310;13.582;2023-05-14T04:50:44;18.90;99.90
61004;DHT22;46889;37.310;13.582;2023-05-14T04:53:11;18.90;99.90
61004;DHT22;46889;37.310;13.582;2023-05-14T04:55:37;19.00;99.90
61004;DHT22;46889;37.310;13.582;2023-05-14T04:58:03;18.90;99.90
61004;DHT22;46889;37.310;13.582;2023-05-14T05:00:29;18.90;99.90
61004;DHT22;46889;37.310;13.582;2023-05-14T05:02:55;18.80;99.90
61004;DHT22;46889;37.310;13.582;2023-05-14T05:05:21;18.70;99.90
61004;DHT22;46889;37.310;13.582;2023-05-14T05:07:47;18.60;99.90
61004;DHT22;46889;37.310;13.582;2023-05-14T05:10:13;18.60;99.90
61004;DHT22;46889;37.310;13.582;2023-05-14T05:12:40;18.60;99.90
61004;DHT22;46889;37.310;13.582;2023-05-14T05:15:06;18.50;99.90
61004;DHT22;46889;37.310;13.582;2023-05-14T05:17:35;18.50;99.90
61004;DHT22;46889;37.310;13.582;2023-05-14T05:20:01;18.60;99.90
61004;DHT22;46889;37.310;13.582;2023-05-14T05:22:29;18.80;99.90
61004;DHT22;46889;37.310;13.582;2023-05-14T05:24:55;18.90;99.90
61004;DHT22;46889;37.310;13.582;2023-05-14T05:27:21;19.10;99.90
61004;DHT22;46889;37.310;13.582;2023-05-14T05:29:47;19.20;99.90
61004;DHT22;46889;37.310;13.582;2023-05-14T05:32:13;19.20;99.90
61004;DHT22;46889;37.310;13.582;2023-05-14T05:34:40;19.30;99.90
61004;DHT22;46889;37.310;13.582;2023-05-14T05:37:18;19.20;99.90
61004;DHT22;46889;37.310;13.582;2023-05-14T05:39:44;19.10;99.90
61004;DHT22;46889;37.310;13.582;2023-05-14T05:42:12;19.20;99.90
61004;DHT22;46889;37.310;13.582;2023-05-14T05:44:38;19.10;99.90
61004;DHT22;46889;37.310;13.582;2023-05-14T05:47:05;19.00;99.90
61004;DHT22;46889;37.310;13.582;2023-05-14T05:49:31;19.10;99.90
61004;DHT22;46889;37.310;13.582;2023-05-14T05:51:58;18.90;99.90
61004;DHT22;46889;37.310;13.582;2023-05-14T05:54:24;18.90;99.90
61004;DHT22;46889;37.310;13.582;2023-05-14T05:56:50;18.90;99.90
61004;DHT22;46889;37.310;13.582;2023-05-14T05:59:16;18.90;99.90
61004;DHT22;46889;37.310;13.582;2023-05-14T06:01:42;19.00;99.90
61004;DHT22;46889;37.310;13.582;2023-05-14T06:04:09;19.10;99.90
61004;DHT22;46889;37.310;13.582;2023-05-14T06:06:35;19.00;99.90
61004;DHT22;46889;37.310;13.582;2023-05-14T06:09:01;19.00;99.90
61004;DHT22;46889;37.310;13.582;2023-05-14T06:11:27;19.00;99.90
61004;DHT22;46889;37.310;13.582;2023-05-14T06:13:53;19.10;99.90
61004;DHT22;46889;37.310;13.582;2023-05-14T06:16:19;19.20;99.90
61004;DHT22;46889;37.310;13.582;2023-05-14T06:18:45;19.20;99.90
61004;DHT22;46889;37.310;13.582;2023-05-14T06:21:11;19.20;99.90
61004;DHT22;46889;37.310;13.582;2023-05-14T06:23:37;19.20;99.90
61004;DHT22;46889;37.310;13.582;2023-05-14T06:26:03;19.20;99.90
61004;DHT22;46889;37.310;13.582;2023-05-14T06:28:29;19.30;99.90
61004;DHT22;46889;37.310;13.582;2023-05-14T06:30:55;19.30;99.90
61004;DHT22;46889;37.310;13.582;2023-05-14T06:33:22;19.30;99.90
61004;DHT22;46889;37.310;13.582;2023-05-14T06:35:59;19.40;99.90
61004;DHT22;46889;37.310;13.582;2023-05-14T06:38:25;19.40;99.90
61004;DHT22;46889;37.310;13.582;2023-05-14T06:40:51;19.50;99.90
61004;DHT22;46889;37.310;13.582;2023-05-14T06:43:18;19.60;99.90
61004;DHT22;46889;37.310;13.582;2023-05-14T06:45:47;19.60;99.90
61004;DHT22;46889;37.310;13.582;2023-05-14T06:48:14;19.50;99.90
61004;DHT22;46889;37.310;13.582;2023-05-14T06:50:40;19.70;99.90
61004;DHT22;46889;37.310;13.582;2023-05-14T06:53:06;19.60;99.90
61004;DHT22;46889;37.310;13.582;2023-05-14T06:55:33;19.60;99.90
61004;DHT22;46889;37.310;13.582;2023-05-14T06:57:59;19.70;99.90
61004;DHT22;46889;37.310;13.582;2023-05-14T07:00:25;19.70;99.90
61004;DHT22;46889;37.310;13.582;2023-05-14T07:02:51;19.70;99.90
61004;DHT22;46889;37.310;13.582;2023-05-14T07:05:17;19.80;99.90
61004;DHT22;46889;37.310;13.582;2023-05-14T07:07:43;19.80;99.90
61004;DHT22;46889;37.310;13.582;2023-05-14T07:10:09;19.90;99.90
61004;DHT22;46889;37.310;13.582;2023-05-14T07:12:36;19.90;99.90
61004;DHT22;46889;37.310;13.582;2023-05-14T07:15:02;19.90;99.90
61004;DHT22;46889;37.310;13.582;2023-05-14T07:17:28;19.90;99.90
61004;DHT22;46889;37.310;13.582;2023-05-14T07:19:54;19.90;99.90
61004;DHT22;46889;37.310;13.582;2023-05-14T07:22:21;20.00;99.90
61004;DHT22;46889;37.310;13.582;2023-05-14T07:24:47;20.10;99.90
61004;DHT22;46889;37.310;13.582;2023-05-14T07:27:13;20.20;99.90
61004;DHT22;46889;37.310;13.582;2023-05-14T07:29:41;20.30;99.90
61004;DHT22;46889;37.310;13.582;2023-05-14T07:32:07;20.40;99.90
61004;DHT22;46889;37.310;13.582;2023-05-14T07:34:34;20.40;99.90
61004;DHT22;46889;37.310;13.582;2023-05-14T07:37:00;20.50;99.90
61004;DHT22;46889;37.310;13.582;2023-05-14T07:39:26;20.50;99.90
61004;DHT22;46889;37.310;13.582;2023-05-14T07:41:52;20.70;99.90
61004;DHT22;46889;37.310;13.582;2023-05-14T07:44:19;21.10;99.90
61004;DHT22;46889;37.310;13.582;2023-05-14T07:46:45;21.30;99.90
61004;DHT22;46889;37.310;13.582;2023-05-14T07:49:12;21.50;99.90
61004;DHT22;46889;37.310;13.582;2023-05-14T07:51:38;21.50;99.90
61004;DHT22;46889;37.310;13.582;2023-05-14T07:54:04;21.50;99.90
61004;DHT22;46889;37.310;13.582;2023-05-14T07:56:30;21.50;99.90
61004;DHT22;46889;37.310;13.582;2023-05-14T07:58:59;21.40;99.90
61004;DHT22;46889;37.310;13.582;2023-05-14T08:01:25;21.40;99.90
61004;DHT22;46889;37.310;13.582;2023-05-14T08:03:51;21.50;99.90
61004;DHT22;46889;37.310;13.582;2023-05-14T08:06:17;21.50;99.90
61004;DHT22;46889;37.310;13.582;2023-05-14T08:08:45;21.40;99.90
61004;DHT22;46889;37.310;13.582;2023-05-14T08:11:11;21.60;99.90
61004;DHT22;46889;37.310;13.582;2023-05-14T08:13:37;21.90;99.90
61004;DHT22;46889;37.310;13.582;2023-05-14T08:16:04;21.90;99.90
61004;DHT22;46889;37.310;13.582;2023-05-14T08:18:33;22.00;99.90
61004;DHT22;46889;37.310;13.582;2023-05-14T08:20:59;22.10;99.90
61004;DHT22;46889;37.310;13.582;2023-05-14T08:23:26;22.20;99.90
61004;DHT22;46889;37.310;13.582;2023-05-14T08:25:52;22.30;99.90
61004;DHT22;46889;37.310;13.582;2023-05-14T08:28:18;22.50;99.90
61004;DHT22;46889;37.310;13.582;2023-05-14T08:30:44;22.60;99.90
61004;DHT22;46889;37.310;13.582;2023-05-14T08:33:10;22.70;99.90
61004;DHT22;46889;37.310;13.582;2023-05-14T08:35:36;22.90;99.90
61004;DHT22;46889;37.310;13.582;2023-05-14T08:38:03;23.10;99.90
61004;DHT22;46889;37.310;13.582;2023-05-14T08:40:29;23.20;99.90
61004;DHT22;46889;37.310;13.582;2023-05-14T08:42:56;22.90;99.90
61004;DHT22;46889;37.310;13.582;2023-05-14T08:45:30;23.00;99.90
61004;DHT22;46889;37.310;13.582;2023-05-14T08:47:59;22.80;99.90
61004;DHT22;46889;37.310;13.582;2023-05-14T08:50:33;22.80;99.90
61004;DHT22;46889;37.310;13.582;2023-05-14T08:53:00;22.30;99.90
61004;DHT22;46889;37.310;13.582;2023-05-14T08:55:27;22.60;99.90
61004;DHT22;46889;37.310;13.582;2023-05-14T08:57:54;22.90;99.90
61004;DHT22;46889;37.310;13.582;2023-05-14T09:00:21;23.10;99.90
61004;DHT22;46889;37.310;13.582;2023-05-14T09:02:48;23.80;99.90
61004;DHT22;46889;37.310;13.582;2023-05-14T09:05:16;24.20;99.90
61004;DHT22;46889;37.310;13.582;2023-05-14T09:07:44;24.70;99.90
61004;DHT22;46889;37.310;13.582;2023-05-14T09:10:10;24.90;99.90
61004;DHT22;46889;37.310;13.582;2023-05-14T09:12:36;24.40;99.90
61004;DHT22;46889;37.310;13.582;2023-05-14T09:15:02;24.30;99.90
61004;DHT22;46889;37.310;13.582;2023-05-14T09:17:29;24.30;99.90
61004;DHT22;46889;37.310;13.582;2023-05-14T09:19:55;24.60;99.90
61004;DHT22;46889;37.310;13.582;2023-05-14T09:22:21;24.50;99.90
61004;DHT22;46889;37.310;13.582;2023-05-14T09:25:01;24.20;99.90
61004;DHT22;46889;37.310;13.582;2023-05-14T09:27:29;24.00;99.90
61004;DHT22;46889;37.310;13.582;2023-05-14T09:30:12;24.10;99.90
61004;DHT22;46889;37.310;13.582;2023-05-14T09:32:40;24.50;99.90
61004;DHT22;46889;37.310;13.582;2023-05-14T09:35:12;24.40;99.90
61004;DHT22;46889;37.310;13.582;2023-05-14T09:37:43;23.90;99.90
61004;DHT22;46889;37.310;13.582;2023-05-14T09:40:11;23.60;99.90
61004;DHT22;46889;37.310;13.582;2023-05-14T09:42:38;23.40;99.90
61004;DHT22;46889;37.310;13.582;2023-05-14T09:45:06;22.80;99.90
61004;DHT22;46889;37.310;13.582;2023-05-14T09:47:32;22.30;99.90
61004;DHT22;46889;37.310;13.582;2023-05-14T09:49:58;21.90;99.90
61004;DHT22;46889;37.310;13.582;2023-05-14T09:52:25;21.50;99.90
61004;DHT22;46889;37.310;13.582;2023-05-14T09:54:51;21.10;99.90
61004;DHT22;46889;37.310;13.582;2023-05-14T09:57:19;21.20;99.90
61004;DHT22;46889;37.310;13.582;2023-05-14T09:59:45;20.90;99.90
61004;DHT22;46889;37.310;13.582;2023-05-14T10:02:20;20.60;99.90
61004;DHT22;46889;37.310;13.582;2023-05-14T10:04:54;20.70;99.90
61004;DHT22;46889;37.310;13.582;2023-05-14T10:07:28;20.70;99.90
61004;DHT22;46889;37.310;13.582;2023-05-14T10:10:01;20.90;99.90
61004;DHT22;46889;37.310;13.582;2023-05-14T10:12:33;21.20;99.90
61004;DHT22;46889;37.310;13.582;2023-05-14T10:15:03;21.80;99.90
61004;DHT22;46889;37.310;13.582;2023-05-14T10:17:33;22.10;99.90
61004;DHT22;46889;37.310;13.582;2023-05-14T10:20:02;22.40;99.90
61004;DHT22;46889;37.310;13.582;2023-05-14T10:22:33;23.10;99.90
61004;DHT22;46889;37.310;13.582;2023-05-14T10:25:01;23.10;99.90
61004;DHT22;46889;37.310;13.582;2023-05-14T10:27:28;23.70;99.90
61004;DHT22;46889;37.310;13.582;2023-05-14T10:29:55;23.60;99.90
61004;DHT22;46889;37.310;13.582;2023-05-14T10:32:22;24.00;99.90
61004;DHT22;46889;37.310;13.582;2023-05-14T10:34:51;24.30;99.90
61004;DHT22;46889;37.310;13.582;2023-05-14T10:37:35;24.50;99.90
61004;DHT22;46889;37.310;13.582;2023-05-14T10:40:02;24.50;99.90
61004;DHT22;46889;37.310;13.582;2023-05-14T10:42:37;24.40;99.90
61004;DHT22;46889;37.310;13.582;2023-05-14T10:45:12;24.70;99.90
61004;DHT22;46889;37.310;13.582;2023-05-14T10:47:43;25.00;99.90
61004;DHT22;46889;37.310;13.582;2023-05-14T10:50:12;24.80;99.90
61004;DHT22;46889;37.310;13.582;2023-05-14T10:52:43;24.70;99.90
61004;DHT22;46889;37.310;13.582;2023-05-14T10:55:14;24.60;99.90
61004;DHT22;46889;37.310;13.582;2023-05-14T10:57:44;25.00;99.90
61004;DHT22;46889;37.310;13.582;2023-05-14T11:00:12;24.80;99.90
61004;DHT22;46889;37.310;13.582;2023-05-14T11:02:40;24.50;99.90
61004;DHT22;46889;37.310;13.582;2023-05-14T11:05:12;24.70;99.90
61004;DHT22;46889;37.310;13.582;2023-05-14T11:07:45;24.40;99.90
61004;DHT22;46889;37.310;13.582;2023-05-14T11:10:12;24.50;99.90
61004;DHT22;46889;37.310;13.582;2023-05-14T11:12:43;24.70;99.90
61004;DHT22;46889;37.310;13.582;2023-05-14T11:15:10;25.00;99.90
61004;DHT22;46889;37.310;13.582;2023-05-14T11:17:39;25.10;99.90
61004;DHT22;46889;37.310;13.582;2023-05-14T11:20:07;25.40;99.90
61004;DHT22;46889;37.310;13.582;2023-05-14T11:22:34;25.50;99.90
61004;DHT22;46889;37.310;13.582;2023-05-14T11:25:01;25.00;99.90
61004;DHT22;46889;37.310;13.582;2023-05-14T11:27:28;25.20;99.90
61004;DHT22;46889;37.310;13.582;2023-05-14T11:30:00;24.90;99.90
61004;DHT22;46889;37.310;13.582;2023-05-14T11:32:27;24.60;99.90
61004;DHT22;46889;37.310;13.582;2023-05-14T11:34:53;24.50;99.90
61004;DHT22;46889;37.310;13.582;2023-05-14T11:37:19;24.80;99.90
61004;DHT22;46889;37.310;13.582;2023-05-14T11:39:57;24.90;99.90
61004;DHT22;46889;37.310;13.582;2023-05-14T11:42:23;24.80;99.90
61004;DHT22;46889;37.310;13.582;2023-05-14T11:44:51;24.60;99.90
61004;DHT22;46889;37.310;13.582;2023-05-14T11:47:19;24.60;99.90
61004;DHT22;46889;37.310;13.582;2023-05-14T11:49:46;24.70;99.90
61004;DHT22;46889;37.310;13.582;2023-05-14T11:52:14;25.00;99.90
61004;DHT22;46889;37.310;13.582;2023-05-14T11:54:43;25.30;99.90
61004;DHT22;46889;37.310;13.582;2023-05-14T11:57:12;25.60;99.90
61004;DHT22;46889;37.310;13.582;2023-05-14T11:59:39;25.30;99.90
61004;DHT22;46889;37.310;13.582;2023-05-14T12:02:16;25.40;99.90
61004;DHT22;46889;37.310;13.582;2023-05-14T12:04:48;25.80;99.90
61004;DHT22;46889;37.310;13.582;2023-05-14T12:07:15;26.00;99.90
61004;DHT22;46889;37.310;13.582;2023-05-14T12:09:43;25.70;99.90
61004;DHT22;46889;37.310;13.582;2023-05-14T12:12:20;25.40;99.90
61004;DHT22;46889;37.310;13.582;2023-05-14T12:14:47;25.40;99.90
61004;DHT22;46889;37.310;13.582;2023-05-14T12:17:31;25.40;99.90
61004;DHT22;46889;37.310;13.582;2023-05-14T12:19:58;25.40;99.90
61004;DHT22;46889;37.310;13.582;2023-05-14T12:22:28;25.70;99.90
61004;DHT22;46889;37.310;13.582;2023-05-14T12:24:59;26.30;99.90
61004;DHT22;46889;37.310;13.582;2023-05-14T12:27:27;26.70;99.90
61004;DHT22;46889;37.310;13.582;2023-05-14T12:30:00;26.40;99.90
61004;DHT22;46889;37.310;13.582;2023-05-14T12:32:30;26.70;99.90
61004;DHT22;46889;37.310;13.582;2023-05-14T12:34:57;26.80;99.90
61004;DHT22;46889;37.310;13.582;2023-05-14T12:37:23;26.60;99.90
61004;DHT22;46889;37.310;13.582;2023-05-14T12:39:49;26.40;99.90
61004;DHT22;46889;37.310;13.582;2023-05-14T12:42:16;26.30;99.90
61004;DHT22;46889;37.310;13.582;2023-05-14T12:44:42;26.10;99.90
61004;DHT22;46889;37.310;13.582;2023-05-14T12:47:08;26.20;99.90
61004;DHT22;46889;37.310;13.582;2023-05-14T12:49:34;26.00;99.90
61004;DHT22;46889;37.310;13.582;2023-05-14T12:52:00;26.20;99.90
61004;DHT22;46889;37.310;13.582;2023-05-14T12:54:27;26.10;99.90
61004;DHT22;46889;37.310;13.582;2023-05-14T12:56:53;26.30;99.90
61004;DHT22;46889;37.310;13.582;2023-05-14T12:59:19;26.60;99.90
61004;DHT22;46889;37.310;13.582;2023-05-14T13:01:45;26.30;99.90
61004;DHT22;46889;37.310;13.582;2023-05-14T13:04:11;26.40;99.90
61004;DHT22;46889;37.310;13.582;2023-05-14T13:06:38;26.60;99.90
61004;DHT22;46889;37.310;13.582;2023-05-14T13:09:06;26.50;99.90
61004;DHT22;46889;37.310;13.582;2023-05-14T13:11:32;26.20;99.90
61004;DHT22;46889;37.310;13.582;2023-05-14T13:13:59;26.20;99.90
61004;DHT22;46889;37.310;13.582;2023-05-14T13:16:27;26.30;99.90
61004;DHT22;46889;37.310;13.582;2023-05-14T13:18:54;26.20;99.90
61004;DHT22;46889;37.310;13.582;2023-05-14T13:21:20;26.00;99.90
61004;DHT22;46889;37.310;13.582;2023-05-14T13:23:46;25.80;99.90
61004;DHT22;46889;37.310;13.582;2023-05-14T13:26:13;25.50;99.90
61004;DHT22;46889;37.310;13.582;2023-05-14T13:28:39;25.40;99.90
61004;DHT22;46889;37.310;13.582;2023-05-14T13:31:10;25.20;99.90
61004;DHT22;46889;37.310;13.582;2023-05-14T13:33:39;25.30;99.90
61004;DHT22;46889;37.310;13.582;2023-05-14T13:36:05;25.20;99.90
61004;DHT22;46889;37.310;13.582;2023-05-14T13:38:33;25.30;99.90
61004;DHT22;46889;37.310;13.582;2023-05-14T13:40:58;25.40;99.90
61004;DHT22;46889;37.310;13.582;2023-05-14T13:43:31;25.10;99.90
61004;DHT22;46889;37.310;13.582;2023-05-14T13:45:57;25.40;99.90
61004;DHT22;46889;37.310;13.582;2023-05-14T13:48:24;25.40;99.90
61004;DHT22;46889;37.310;13.582;2023-05-14T13:50:50;25.30;99.90
61004;DHT22;46889;37.310;13.582;2023-05-14T13:53:20;25.30;99.90
61004;DHT22;46889;37.310;13.582;2023-05-14T13:55:47;25.40;99.90
61004;DHT22;46889;37.310;13.582;2023-05-14T13:58:14;25.30;99.90
61004;DHT22;46889;37.310;13.582;2023-05-14T14:00:40;25.40;99.90
61004;DHT22;46889;37.310;13.582;2023-05-14T14:03:07;25.40;99.90
61004;DHT22;46889;37.310;13.582;2023-05-14T14:05:36;25.10;99.90
61004;DHT22;46889;37.310;13.582;2023-05-14T14:08:02;24.90;99.90
61004;DHT22;46889;37.310;13.582;2023-05-14T14:10:29;25.00;99.90
61004;DHT22;46889;37.310;13.582;2023-05-14T14:12:55;25.00;99.90
61004;DHT22;46889;37.310;13.582;2023-05-14T14:15:21;25.20;99.90
61004;DHT22;46889;37.310;13.582;2023-05-14T14:17:47;25.30;99.90
61004;DHT22;46889;37.310;13.582;2023-05-14T14:20:13;25.30;99.90
61004;DHT22;46889;37.310;13.582;2023-05-14T14:22:41;25.20;99.90
61004;DHT22;46889;37.310;13.582;2023-05-14T14:25:08;25.40;99.90
61004;DHT22;46889;37.310;13.582;2023-05-14T14:27:34;25.40;99.90
61004;DHT22;46889;37.310;13.582;2023-05-14T14:30:08;25.30;99.90
61004;DHT22;46889;37.310;13.582;2023-05-14T14:32:44;25.80;99.90
61004;DHT22;46889;37.310;13.582;2023-05-14T14:35:12;26.30;99.90
61004;DHT22;46889;37.310;13.582;2023-05-14T14:37:39;26.30;99.90
61004;DHT22;46889;37.310;13.582;2023-05-14T14:40:07;26.10;99.90
61004;DHT22;46889;37.310;13.582;2023-05-14T14:42:35;26.00;99.90
61004;DHT22;46889;37.310;13.582;2023-05-14T14:45:03;25.90;99.90
61004;DHT22;46889;37.310;13.582;2023-05-14T14:47:29;26.10;99.90
61004;DHT22;46889;37.310;13.582;2023-05-14T14:49:56;25.70;99.90
61004;DHT22;46889;37.310;13.582;2023-05-14T14:52:23;25.90;99.90
61004;DHT22;46889;37.310;13.582;2023-05-14T14:54:52;26.20;99.90
61004;DHT22;46889;37.310;13.582;2023-05-14T14:57:18;26.30;99.90
61004;DHT22;46889;37.310;13.582;2023-05-14T14:59:44;26.20;99.90
61004;DHT22;46889;37.310;13.582;2023-05-14T15:02:11;26.10;99.90
61004;DHT22;46889;37.310;13.582;2023-05-14T15:04:37;25.90;99.90
61004;DHT22;46889;37.310;13.582;2023-05-14T15:07:05;25.60;99.90
61004;DHT22;46889;37.310;13.582;2023-05-14T15:09:31;25.50;99.90
61004;DHT22;46889;37.310;13.582;2023-05-14T15:11:57;25.50;99.90
61004;DHT22;46889;37.310;13.582;2023-05-14T15:14:23;25.30;99.90
61004;DHT22;46889;37.310;13.582;2023-05-14T15:16:49;25.30;99.90
61004;DHT22;46889;37.310;13.582;2023-05-14T15:19:15;25.30;99.90
61004;DHT22;46889;37.310;13.582;2023-05-14T15:21:42;25.20;99.90
61004;DHT22;46889;37.310;13.582;2023-05-14T15:24:11;25.10;99.90
61004;DHT22;46889;37.310;13.582;2023-05-14T15:26:38;25.30;99.90
61004;DHT22;46889;37.310;13.582;2023-05-14T15:29:04;25.20;99.90
61004;DHT22;46889;37.310;13.582;2023-05-14T15:31:30;25.00;99.90
61004;DHT22;46889;37.310;13.582;2023-05-14T15:33:56;24.90;99.90